BOS weather

General Edward Lawrence Logan International Airport
Boston, Massachusetts, United States

Public forecast

Using degrees Fahrenheit for public forecast. Weather courtesy of forecast.io.

Current aviation weather report (METAR) for General Edward Lawrence Logan International Airport

Retrieved 2020/01/19 09:32 UTC (7 minutes ago):

KBOS 190932Z 30007KT 6SM -FZDZ OVC005 M03/M06 A2963 RMK AO2 FZDZB31 P0000 T10331061

Aviation forecast (TAF) for General Edward Lawrence Logan International Airport

Retrieved 2020/01/19 06:23 UTC (3 hours ago):

TAF KBOS 190520Z 1906/2012 16008KT 1SM -SN OVC008 FM190700 21009KT P6SM -DZ OVC008 FM191000 24008KT P6SM -DZ SCT008 OVC010 FM191200 25008KT P6SM OVC025 FM191300 26009KT P6SM BKN080 FM191400 27011G21KT P6SM BKN250